sensor_id;sensor_type;location;lat;lon;timestamp;pressure;altitude;pressure_sealevel;temperature;humidity
24422;BME280;12600;53.326;-6.298;2022-09-12T00:02:04;100490.97;;;20.29;80.65
24422;BME280;12600;53.326;-6.298;2022-09-12T00:04:36;100524.19;;;20.52;80.24
24422;BME280;12600;53.326;-6.298;2022-09-12T00:07:05;100523.84;;;20.57;80.69
24422;BME280;12600;53.326;-6.298;2022-09-12T00:09:35;100519.78;;;20.47;80.92
24422;BME280;12600;53.326;-6.298;2022-09-12T00:12:06;100517.44;;;20.49;80.62
24422;BME280;12600;53.326;-6.298;2022-09-12T00:14:36;100525.41;;;20.54;80.82
24422;BME280;12600;53.326;-6.298;2022-09-12T00:17:05;100528.53;;;20.49;81.14
24422;BME280;12600;53.326;-6.298;2022-09-12T00:19:34;100521.38;;;20.48;81.13
24422;BME280;12600;53.326;-6.298;2022-09-12T00:22:04;100531.31;;;20.49;80.80
24422;BME280;12600;53.326;-6.298;2022-09-12T00:24:33;100535.25;;;20.48;81.41
24422;BME280;12600;53.326;-6.298;2022-09-12T00:27:02;100524.44;;;20.43;81.94
24422;BME280;12600;53.326;-6.298;2022-09-12T00:29:33;100534.94;;;20.53;81.62
24422;BME280;12600;53.326;-6.298;2022-09-12T00:32:03;100527.31;;;20.47;82.27
24422;BME280;12600;53.326;-6.298;2022-09-12T00:34:32;100529.28;;;20.46;82.51
24422;BME280;12600;53.326;-6.298;2022-09-12T00:37:01;100530.91;;;20.51;82.67
24422;BME280;12600;53.326;-6.298;2022-09-12T00:39:31;100526.94;;;20.48;82.34
24422;BME280;12600;53.326;-6.298;2022-09-12T00:42:02;100527.72;;;20.49;83.00
24422;BME280;12600;53.326;-6.298;2022-09-12T00:44:51;100531.31;;;20.49;83.69
24422;BME280;12600;53.326;-6.298;2022-09-12T00:47:24;100530.00;;;20.43;83.04
24422;BME280;12600;53.326;-6.298;2022-09-12T00:50:02;100532.44;;;20.45;83.65
24422;BME280;12600;53.326;-6.298;2022-09-12T00:52:36;100512.53;;;20.39;83.23
24422;BME280;12600;53.326;-6.298;2022-09-12T00:55:12;100532.47;;;20.48;83.55
24422;BME280;12600;53.326;-6.298;2022-09-12T00:57:49;100534.88;;;20.50;83.59
24422;BME280;12600;53.326;-6.298;2022-09-12T01:00:24;100523.00;;;20.53;83.47
24422;BME280;12600;53.326;-6.298;2022-09-12T01:02:57;100535.66;;;20.50;83.20
24422;BME280;12600;53.326;-6.298;2022-09-12T01:05:29;100534.06;;;20.49;83.49
24422;BME280;12600;53.326;-6.298;2022-09-12T01:08:00;100524.56;;;20.50;83.84
24422;BME280;12600;53.326;-6.298;2022-09-12T01:10:31;100527.34;;;20.50;83.47
24422;BME280;12600;53.326;-6.298;2022-09-12T01:13:06;100505.72;;;20.33;83.92
24422;BME280;12600;53.326;-6.298;2022-09-12T01:15:38;100514.06;;;20.36;83.57
24422;BME280;12600;53.326;-6.298;2022-09-12T01:18:12;100526.13;;;20.48;83.17
24422;BME280;12600;53.326;-6.298;2022-09-12T01:21:13;100517.22;;;20.35;83.78
24422;BME280;12600;53.326;-6.298;2022-09-12T01:27:43;100498.00;;;20.19;84.22
24422;BME280;12600;53.326;-6.298;2022-09-12T01:33:36;100505.16;;;20.20;84.32
24422;BME280;12600;53.326;-6.298;2022-09-12T01:36:38;100511.84;;;20.16;84.67
24422;BME280;12600;53.326;-6.298;2022-09-12T01:39:19;100511.84;;;20.16;84.95
24422;BME280;12600;53.326;-6.298;2022-09-12T01:42:05;100498.28;;;20.07;84.91
24422;BME280;12600;53.326;-6.298;2022-09-12T01:44:47;100500.38;;;20.17;85.33
24422;BME280;12600;53.326;-6.298;2022-09-12T01:47:24;100507.59;;;20.25;85.15
24422;BME280;12600;53.326;-6.298;2022-09-12T01:50:00;100495.53;;;20.10;84.87
24422;BME280;12600;53.326;-6.298;2022-09-12T01:52:36;100504.41;;;20.23;84.99
24422;BME280;12600;53.326;-6.298;2022-09-12T01:55:12;100503.16;;;20.17;84.57
24422;BME280;12600;53.326;-6.298;2022-09-12T01:57:50;100509.97;;;20.23;84.91
24422;BME280;12600;53.326;-6.298;2022-09-12T02:00:22;100506.78;;;20.21;85.06
24422;BME280;12600;53.326;-6.298;2022-09-12T02:02:55;100510.69;;;20.20;84.87
24422;BME280;12600;53.326;-6.298;2022-09-12T02:05:33;100511.34;;;20.06;85.52
24422;BME280;12600;53.326;-6.298;2022-09-12T02:08:08;100510.56;;;20.09;85.47
24422;BME280;12600;53.326;-6.298;2022-09-12T02:10:45;100508.56;;;20.06;85.54
24422;BME280;12600;53.326;-6.298;2022-09-12T02:13:20;100504.13;;;20.02;85.85
24422;BME280;12600;53.326;-6.298;2022-09-12T02:15:56;100509.03;;;20.12;86.22
24422;BME280;12600;53.326;-6.298;2022-09-12T02:18:29;100516.16;;;20.13;86.48
24422;BME280;12600;53.326;-6.298;2022-09-12T02:21:01;100507.09;;;20.16;86.10
24422;BME280;12600;53.326;-6.298;2022-09-12T02:23:36;100517.78;;;20.14;86.19
24422;BME280;12600;53.326;-6.298;2022-09-12T02:26:11;100511.84;;;20.16;86.40
24422;BME280;12600;53.326;-6.298;2022-09-12T02:28:44;100518.66;;;20.22;86.07
24422;BME280;12600;53.326;-6.298;2022-09-12T02:31:22;100503.53;;;20.16;87.07
24422;BME280;12600;53.326;-6.298;2022-09-12T02:34:09;100509.06;;;20.16;87.30
24422;BME280;12600;53.326;-6.298;2022-09-12T02:36:51;100515.91;;;20.22;87.41
24422;BME280;12600;53.326;-6.298;2022-09-12T02:39:23;100502.81;;;20.22;86.43
24422;BME280;12600;53.326;-6.298;2022-09-12T02:41:55;100519.16;;;20.31;86.46
24422;BME280;12600;53.326;-6.298;2022-09-12T02:44:25;100511.59;;;20.28;86.92
24422;BME280;12600;53.326;-6.298;2022-09-12T02:47:02;100515.16;;;20.28;86.44
24422;BME280;12600;53.326;-6.298;2022-09-12T02:49:34;100516.72;;;20.26;86.45
24422;BME280;12600;53.326;-6.298;2022-09-12T02:52:03;100514.63;;;20.16;86.87
24422;BME280;12600;53.326;-6.298;2022-09-12T02:54:33;100503.03;;;20.06;87.12
24422;BME280;12600;53.326;-6.298;2022-09-12T02:57:04;100494.44;;;19.89;86.90
24422;BME280;12600;53.326;-6.298;2022-09-12T02:59:34;100504.19;;;20.05;87.14
24422;BME280;12600;53.326;-6.298;2022-09-12T03:02:28;100506.13;;;20.01;87.18
24422;BME280;12600;53.326;-6.298;2022-09-12T03:05:13;100507.31;;;20.04;87.00
24422;BME280;12600;53.326;-6.298;2022-09-12T03:08:11;100498.97;;;20.00;86.65
24422;BME280;12600;53.326;-6.298;2022-09-12T03:11:00;100500.56;;;20.01;86.84
24422;BME280;12600;53.326;-6.298;2022-09-12T03:13:42;100501.00;;;20.03;86.54
24422;BME280;12600;53.326;-6.298;2022-09-12T03:16:28;100504.94;;;20.02;86.27
24422;BME280;12600;53.326;-6.298;2022-09-12T03:19:11;100492.81;;;19.84;87.41
24422;BME280;12600;53.326;-6.298;2022-09-12T03:21:57;100500.16;;;19.99;86.84
24422;BME280;12600;53.326;-6.298;2022-09-12T03:24:34;100499.28;;;19.95;86.42
24422;BME280;12600;53.326;-6.298;2022-09-12T03:27:10;100499.69;;;19.94;87.01
24422;BME280;12600;53.326;-6.298;2022-09-12T03:29:42;100502.44;;;19.94;86.35
24422;BME280;12600;53.326;-6.298;2022-09-12T03:32:13;100490.47;;;19.86;86.47
24422;BME280;12600;53.326;-6.298;2022-09-12T03:34:42;100506.41;;;19.93;87.01
24422;BME280;12600;53.326;-6.298;2022-09-12T03:37:13;100509.56;;;19.91;87.30
24422;BME280;12600;53.326;-6.298;2022-09-12T03:39:42;100514.34;;;19.94;86.58
24422;BME280;12600;53.326;-6.298;2022-09-12T03:42:11;100508.75;;;19.91;86.62
24422;BME280;12600;53.326;-6.298;2022-09-12T03:44:41;100505.19;;;19.90;86.33
24422;BME280;12600;53.326;-6.298;2022-09-12T03:47:10;100521.59;;;20.02;86.50
24422;BME280;12600;53.326;-6.298;2022-09-12T03:49:39;100509.66;;;19.98;86.59
24422;BME280;12600;53.326;-6.298;2022-09-12T03:52:09;100531.09;;;20.05;86.67
24422;BME280;12600;53.326;-6.298;2022-09-12T03:54:39;100512.88;;;20.04;86.90
24422;BME280;12600;53.326;-6.298;2022-09-12T03:57:09;100521.28;;;20.11;86.76
24422;BME280;12600;53.326;-6.298;2022-09-12T03:59:38;100514.56;;;20.12;87.02
24422;BME280;12600;53.326;-6.298;2022-09-12T04:02:07;100518.22;;;20.20;86.57
24422;BME280;12600;53.326;-6.298;2022-09-12T04:04:40;100497.09;;;20.08;86.82
24422;BME280;12600;53.326;-6.298;2022-09-12T04:07:10;100513.06;;;20.18;86.68
24422;BME280;12600;53.326;-6.298;2022-09-12T04:09:41;100517.88;;;20.21;86.56
24422;BME280;12600;53.326;-6.298;2022-09-12T04:12:11;100509.50;;;20.18;86.63
24422;BME280;12600;53.326;-6.298;2022-09-12T04:14:40;100519.41;;;20.19;87.19
24422;BME280;12600;53.326;-6.298;2022-09-12T04:17:09;100525.03;;;20.26;86.45
24422;BME280;12600;53.326;-6.298;2022-09-12T04:19:39;100520.34;;;20.30;86.62
24422;BME280;12600;53.326;-6.298;2022-09-12T04:22:08;100514.75;;;20.26;86.72
24422;BME280;12600;53.326;-6.298;2022-09-12T04:24:37;100502.03;;;20.22;87.01
24422;BME280;12600;53.326;-6.298;2022-09-12T04:27:07;100519.63;;;20.36;86.48
24422;BME280;12600;53.326;-6.298;2022-09-12T04:29:37;100514.44;;;20.35;86.63
24422;BME280;12600;53.326;-6.298;2022-09-12T04:32:06;100521.66;;;20.39;86.94
24422;BME280;12600;53.326;-6.298;2022-09-12T04:34:35;100543.88;;;20.43;86.58
24422;BME280;12600;53.326;-6.298;2022-09-12T04:37:05;100533.94;;;20.38;86.61
24422;BME280;12600;53.326;-6.298;2022-09-12T04:39:34;100537.44;;;20.35;86.32
24422;BME280;12600;53.326;-6.298;2022-09-12T04:42:04;100537.81;;;20.30;87.11
24422;BME280;12600;53.326;-6.298;2022-09-12T04:44:34;100530.28;;;20.31;87.54
24422;BME280;12600;53.326;-6.298;2022-09-12T04:47:04;100533.78;;;20.28;87.28
24422;BME280;12600;53.326;-6.298;2022-09-12T04:49:33;100508.13;;;20.04;87.83
24422;BME280;12600;53.326;-6.298;2022-09-12T04:52:03;100525.16;;;20.03;87.86
24422;BME280;12600;53.326;-6.298;2022-09-12T04:54:32;100494.81;;;19.83;87.17
24422;BME280;12600;53.326;-6.298;2022-09-12T04:57:02;100526.63;;;19.93;87.34
24422;BME280;12600;53.326;-6.298;2022-09-12T04:59:34;100532.38;;;19.81;86.45
24422;BME280;12600;53.326;-6.298;2022-09-12T05:02:03;100533.03;;;19.71;86.87
24422;BME280;12600;53.326;-6.298;2022-09-12T05:04:32;100531.31;;;19.63;87.29
24422;BME280;12600;53.326;-6.298;2022-09-12T05:07:05;100530.03;;;19.56;87.65
24422;BME280;12600;53.326;-6.298;2022-09-12T05:09:35;100536.59;;;19.48;87.40
24422;BME280;12600;53.326;-6.298;2022-09-12T05:12:05;100538.59;;;19.48;87.58
24422;BME280;12600;53.326;-6.298;2022-09-12T05:14:36;100536.53;;;19.41;87.03
24422;BME280;12600;53.326;-6.298;2022-09-12T05:17:05;100549.94;;;19.39;87.32
24422;BME280;12600;53.326;-6.298;2022-09-12T05:19:34;100547.50;;;19.34;87.75
24422;BME280;12600;53.326;-6.298;2022-09-12T05:22:04;100555.31;;;19.28;88.07
24422;BME280;12600;53.326;-6.298;2022-09-12T05:24:35;100545.41;;;19.27;87.98
24422;BME280;12600;53.326;-6.298;2022-09-12T05:27:06;100538.56;;;19.21;87.74
24422;BME280;12600;53.326;-6.298;2022-09-12T05:29:36;100553.31;;;19.29;87.75
24422;BME280;12600;53.326;-6.298;2022-09-12T05:32:06;100550.44;;;19.22;87.81
24422;BME280;12600;53.326;-6.298;2022-09-12T05:34:38;100550.31;;;19.15;88.15
24422;BME280;12600;53.326;-6.298;2022-09-12T05:37:11;100563.44;;;19.18;88.39
24422;BME280;12600;53.326;-6.298;2022-09-12T05:39:42;100565.47;;;19.21;88.13
24422;BME280;12600;53.326;-6.298;2022-09-12T05:42:13;100569.91;;;19.25;87.98
24422;BME280;12600;53.326;-6.298;2022-09-12T05:44:43;100570.25;;;19.24;88.02
24422;BME280;12600;53.326;-6.298;2022-09-12T05:47:13;100560.66;;;19.18;87.50
24422;BME280;12600;53.326;-6.298;2022-09-12T05:49:43;100555.97;;;19.22;87.94
24422;BME280;12600;53.326;-6.298;2022-09-12T05:52:14;100546.31;;;19.12;87.59
24422;BME280;12600;53.326;-6.298;2022-09-12T05:54:44;100566.22;;;19.18;87.71
24422;BME280;12600;53.326;-6.298;2022-09-12T05:57:13;100548.59;;;19.07;87.54
24422;BME280;12600;53.326;-6.298;2022-09-12T05:59:46;100519.00;;;18.88;87.56
24422;BME280;12600;53.326;-6.298;2022-09-12T06:02:17;100563.06;;;19.19;87.76
24422;BME280;12600;53.326;-6.298;2022-09-12T06:04:47;100547.88;;;19.10;87.85
24422;BME280;12600;53.326;-6.298;2022-09-12T06:07:16;100571.28;;;19.16;88.08
24422;BME280;12600;53.326;-6.298;2022-09-12T06:09:45;100568.09;;;19.14;88.06
24422;BME280;12600;53.326;-6.298;2022-09-12T06:12:15;100573.34;;;19.19;88.86
24422;BME280;12600;53.326;-6.298;2022-09-12T06:14:45;100561.00;;;19.16;88.48
24422;BME280;12600;53.326;-6.298;2022-09-12T06:17:15;100576.66;;;19.28;88.28
24422;BME280;12600;53.326;-6.298;2022-09-12T06:19:48;100575.91;;;19.31;87.92
24422;BME280;12600;53.326;-6.298;2022-09-12T06:22:20;100580.72;;;19.34;87.59
24422;BME280;12600;53.326;-6.298;2022-09-12T06:24:51;100577.22;;;19.37;87.34
24422;BME280;12600;53.326;-6.298;2022-09-12T06:27:24;100578.44;;;19.40;87.60
24422;BME280;12600;53.326;-6.298;2022-09-12T06:29:55;100584.78;;;19.40;87.71
24422;BME280;12600;53.326;-6.298;2022-09-12T06:32:24;100582.38;;;19.39;87.64
24422;BME280;12600;53.326;-6.298;2022-09-12T06:34:53;100593.09;;;19.40;87.68
24422;BME280;12600;53.326;-6.298;2022-09-12T06:37:23;100568.78;;;19.30;87.98
24422;BME280;12600;53.326;-6.298;2022-09-12T06:39:52;100585.66;;;19.44;87.78
24422;BME280;12600;53.326;-6.298;2022-09-12T06:42:22;100598.03;;;19.50;87.31
24422;BME280;12600;53.326;-6.298;2022-09-12T06:44:58;100598.03;;;19.50;87.85
24422;BME280;12600;53.326;-6.298;2022-09-12T06:47:27;100596.09;;;19.54;87.50
24422;BME280;12600;53.326;-6.298;2022-09-12T06:49:57;100592.94;;;19.56;87.15
24422;BME280;12600;53.326;-6.298;2022-09-12T06:52:26;100585.75;;;19.51;87.73
24422;BME280;12600;53.326;-6.298;2022-09-12T06:54:56;100592.16;;;19.55;87.04
24422;BME280;12600;53.326;-6.298;2022-09-12T06:57:25;100598.50;;;19.56;87.19
24422;BME280;12600;53.326;-6.298;2022-09-12T06:59:58;100584.47;;;19.45;87.24
24422;BME280;12600;53.326;-6.298;2022-09-12T07:02:27;100599.63;;;19.51;87.29
24422;BME280;12600;53.326;-6.298;2022-09-12T07:04:57;100593.53;;;19.42;87.64
24422;BME280;12600;53.326;-6.298;2022-09-12T07:07:26;100589.50;;;19.40;88.03
24422;BME280;12600;53.326;-6.298;2022-09-12T07:09:55;100598.75;;;19.47;87.29
24422;BME280;12600;53.326;-6.298;2022-09-12T07:12:26;100607.31;;;19.39;87.77
24422;BME280;12600;53.326;-6.298;2022-09-12T07:14:55;100592.13;;;19.29;87.96
24422;BME280;12600;53.326;-6.298;2022-09-12T07:17:26;100610.59;;;19.44;88.26
24422;BME280;12600;53.326;-6.298;2022-09-12T07:19:55;100614.66;;;19.50;88.21
24422;BME280;12600;53.326;-6.298;2022-09-12T07:22:24;100614.66;;;19.50;87.94
24422;BME280;12600;53.326;-6.298;2022-09-12T07:24:54;100598.28;;;19.42;88.23
24422;BME280;12600;53.326;-6.298;2022-09-12T07:27:24;100618.25;;;19.54;87.91
24422;BME280;12600;53.326;-6.298;2022-09-12T07:29:53;100614.28;;;19.52;88.56
24422;BME280;12600;53.326;-6.298;2022-09-12T07:32:23;100617.88;;;19.56;87.90
24422;BME280;12600;53.326;-6.298;2022-09-12T07:34:54;100613.47;;;19.51;87.86
24422;BME280;12600;53.326;-6.298;2022-09-12T07:37:23;100604.28;;;19.47;87.62
24422;BME280;12600;53.326;-6.298;2022-09-12T07:39:52;100623.66;;;19.67;88.33
24422;BME280;12600;53.326;-6.298;2022-09-12T07:42:22;100605.69;;;19.57;88.44
24422;BME280;12600;53.326;-6.298;2022-09-12T07:44:51;100621.72;;;19.71;87.98
24422;BME280;12600;53.326;-6.298;2022-09-12T07:47:20;100629.41;;;19.81;88.37
24422;BME280;12600;53.326;-6.298;2022-09-12T07:49:50;100626.31;;;19.86;88.21
24422;BME280;12600;53.326;-6.298;2022-09-12T07:52:21;100633.03;;;19.85;88.02
24422;BME280;12600;53.326;-6.298;2022-09-12T07:54:50;100624.31;;;19.83;87.35
24422;BME280;12600;53.326;-6.298;2022-09-12T07:57:19;100620.75;;;19.82;87.97
24422;BME280;12600;53.326;-6.298;2022-09-12T07:59:49;100613.22;;;19.83;87.76
24422;BME280;12600;53.326;-6.298;2022-09-12T08:02:20;100626.44;;;19.93;87.40
24422;BME280;12600;53.326;-6.298;2022-09-12T08:04:49;100630.09;;;19.97;87.67
24422;BME280;12600;53.326;-6.298;2022-09-12T08:07:21;100624.94;;;19.99;87.37
24422;BME280;12600;53.326;-6.298;2022-09-12T08:09:50;100616.53;;;19.92;87.36
24422;BME280;12600;53.326;-6.298;2022-09-12T08:12:20;100634.50;;;20.02;87.05
24422;BME280;12600;53.326;-6.298;2022-09-12T08:14:50;100639.63;;;20.00;86.37
24422;BME280;12600;53.326;-6.298;2022-09-12T08:17:20;100633.66;;;19.98;86.54
24422;BME280;12600;53.326;-6.298;2022-09-12T08:19:49;100642.44;;;20.03;87.12
24422;BME280;12600;53.326;-6.298;2022-09-12T08:22:20;100639.19;;;19.98;86.76
24422;BME280;12600;53.326;-6.298;2022-09-12T08:24:50;100644.81;;;20.05;86.87
24422;BME280;12600;53.326;-6.298;2022-09-12T08:27:19;100636.88;;;20.03;86.60
24422;BME280;12600;53.326;-6.298;2022-09-12T08:29:48;100641.44;;;20.15;87.20
24422;BME280;12600;53.326;-6.298;2022-09-12T08:32:17;100631.88;;;20.12;87.02
24422;BME280;12600;53.326;-6.298;2022-09-12T08:34:46;100640.75;;;20.22;86.57
24422;BME280;12600;53.326;-6.298;2022-09-12T08:37:16;100643.13;;;20.23;86.42
24422;BME280;12600;53.326;-6.298;2022-09-12T08:39:47;100639.56;;;20.23;86.12
24422;BME280;12600;53.326;-6.298;2022-09-12T08:42:24;100638.03;;;20.29;86.44
24422;BME280;12600;53.326;-6.298;2022-09-12T08:45:05;100643.66;;;20.32;85.17
24422;BME280;12600;53.326;-6.298;2022-09-12T08:47:40;100646.34;;;20.29;85.79
24422;BME280;12600;53.326;-6.298;2022-09-12T08:50:18;100650.75;;;20.30;85.46
24422;BME280;12600;53.326;-6.298;2022-09-12T08:52:54;100650.81;;;20.33;86.09
24422;BME280;12600;53.326;-6.298;2022-09-12T08:55:32;100658.50;;;20.44;86.18
24422;BME280;12600;53.326;-6.298;2022-09-12T08:58:11;100648.88;;;20.37;85.16
24422;BME280;12600;53.326;-6.298;2022-09-12T09:01:05;100650.81;;;20.33;85.57
24422;BME280;12600;53.326;-6.298;2022-09-12T09:04:03;100664.34;;;20.38;85.06
24422;BME280;12600;53.326;-6.298;2022-09-12T09:07:05;100677.34;;;20.31;84.53
24422;BME280;12600;53.326;-6.298;2022-09-12T09:10:00;100667.69;;;20.21;84.42
24422;BME280;12600;53.326;-6.298;2022-09-12T09:12:41;100673.97;;;20.18;84.79
24422;BME280;12600;53.326;-6.298;2022-09-12T09:15:25;100677.22;;;20.24;85.45
24422;BME280;12600;53.326;-6.298;2022-09-12T09:18:03;100675.66;;;20.26;86.12
24422;BME280;12600;53.326;-6.298;2022-09-12T09:20:44;100683.09;;;20.19;84.77
24422;BME280;12600;53.326;-6.298;2022-09-12T09:23:21;100661.66;;;20.16;85.28
24422;BME280;12600;53.326;-6.298;2022-09-12T09:25:58;100681.50;;;20.18;84.68
24422;BME280;12600;53.326;-6.298;2022-09-12T09:28:35;100675.28;;;20.28;85.41
24422;BME280;12600;53.326;-6.298;2022-09-12T09:31:13;100663.84;;;20.29;86.04
24422;BME280;12600;53.326;-6.298;2022-09-12T09:33:43;100682.28;;;20.45;85.55
24422;BME280;12600;53.326;-6.298;2022-09-12T09:36:20;100684.81;;;20.53;86.02
24422;BME280;12600;53.326;-6.298;2022-09-12T09:38:57;100685.28;;;20.59;85.17
24422;BME280;12600;53.326;-6.298;2022-09-12T09:41:45;100684.47;;;20.58;84.35
24422;BME280;12600;53.326;-6.298;2022-09-12T09:44:17;100684.25;;;20.71;85.30
24422;BME280;12600;53.326;-6.298;2022-09-12T09:46:49;100695.44;;;20.78;84.89
24422;BME280;12600;53.326;-6.298;2022-09-12T09:49:22;100691.09;;;20.80;85.20
24422;BME280;12600;53.326;-6.298;2022-09-12T09:51:52;100696.38;;;20.89;85.32
24422;BME280;12600;53.326;-6.298;2022-09-12T09:54:33;100684.00;;;20.83;84.96
24422;BME280;12600;53.326;-6.298;2022-09-12T09:57:08;100698.81;;;20.94;84.44
24422;BME280;12600;53.326;-6.298;2022-09-12T09:59:59;100688.75;;;20.82;84.64
24422;BME280;12600;53.326;-6.298;2022-09-12T10:03:03;100707.06;;;20.87;84.82
24422;BME280;12600;53.326;-6.298;2022-09-12T10:05:45;100705.13;;;20.91;84.91
24422;BME280;12600;53.326;-6.298;2022-09-12T10:08:23;100692.81;;;20.92;84.76
24422;BME280;12600;53.326;-6.298;2022-09-12T10:11:00;100699.66;;;20.98;84.30
24422;BME280;12600;53.326;-6.298;2022-09-12T10:13:38;100703.59;;;20.93;83.20
24422;BME280;12600;53.326;-6.298;2022-09-12T10:16:20;100706.41;;;21.01;83.83
24422;BME280;12600;53.326;-6.298;2022-09-12T10:18:51;100695.19;;;20.90;83.91
24422;BME280;12600;53.326;-6.298;2022-09-12T10:21:31;100708.41;;;21.00;83.37
24422;BME280;12600;53.326;-6.298;2022-09-12T10:24:18;100705.25;;;21.02;83.64
24422;BME280;12600;53.326;-6.298;2022-09-12T10:26:53;100711.69;;;21.09;83.99
24422;BME280;12600;53.326;-6.298;2022-09-12T10:29:26;100706.59;;;21.15;83.80
24422;BME280;12600;53.326;-6.298;2022-09-12T10:32:00;100713.41;;;21.21;84.03
24422;BME280;12600;53.326;-6.298;2022-09-12T10:34:36;100719.81;;;21.25;83.27
24422;BME280;12600;53.326;-6.298;2022-09-12T10:37:08;100728.63;;;21.31;82.99
24422;BME280;12600;53.326;-6.298;2022-09-12T10:39:37;100730.66;;;21.34;83.53
24422;BME280;12600;53.326;-6.298;2022-09-12T10:42:11;100725.53;;;21.36;83.62
24422;BME280;12600;53.326;-6.298;2022-09-12T10:44:52;100726.66;;;21.31;83.41
24422;BME280;12600;53.326;-6.298;2022-09-12T10:47:27;100721.47;;;21.30;83.21
24422;BME280;12600;53.326;-6.298;2022-09-12T10:50:23;100721.09;;;21.31;81.85
24422;BME280;12600;53.326;-6.298;2022-09-12T10:52:54;100730.66;;;21.34;81.99
24422;BME280;12600;53.326;-6.298;2022-09-12T10:55:30;100710.25;;;21.22;82.47
24422;BME280;12600;53.326;-6.298;2022-09-12T11:01:39;100729.63;;;21.49;82.07
24422;BME280;12600;53.326;-6.298;2022-09-12T11:04:40;100732.13;;;21.61;81.29
24422;BME280;12600;53.326;-6.298;2022-09-12T11:07:40;100731.38;;;21.64;82.79
24422;BME280;12600;53.326;-6.298;2022-09-12T11:10:27;100729.75;;;21.63;82.17
24422;BME280;12600;53.326;-6.298;2022-09-12T11:13:33;100725.38;;;21.62;81.92
24422;BME280;12600;53.326;-6.298;2022-09-12T11:16:18;100683.94;;;21.46;82.57
24422;BME280;12600;53.326;-6.298;2022-09-12T11:19:10;100727.53;;;21.79;81.79
24422;BME280;12600;53.326;-6.298;2022-09-12T11:22:00;100739.53;;;21.87;80.60
24422;BME280;12600;53.326;-6.298;2022-09-12T11:24:49;100743.94;;;21.92;81.29
24422;BME280;12600;53.326;-6.298;2022-09-12T11:27:37;100743.16;;;21.95;81.93
24422;BME280;12600;53.326;-6.298;2022-09-12T11:30:13;100725.22;;;21.85;80.89
24422;BME280;12600;53.326;-6.298;2022-09-12T11:33:06;100749.13;;;21.93;80.29
24422;BME280;12600;53.326;-6.298;2022-09-12T11:35:48;100751.88;;;21.90;81.42
24422;BME280;12600;53.326;-6.298;2022-09-12T11:39:00;100740.63;;;21.75;80.75
24422;BME280;12600;53.326;-6.298;2022-09-12T11:41:41;100744.94;;;21.69;81.25
24422;BME280;12600;53.326;-6.298;2022-09-12T11:44:18;100736.56;;;21.66;81.90
24422;BME280;12600;53.326;-6.298;2022-09-12T11:46:49;100742.22;;;21.76;81.41
24422;BME280;12600;53.326;-6.298;2022-09-12T11:49:32;100729.84;;;21.70;81.17
24422;BME280;12600;53.326;-6.298;2022-09-12T11:52:10;100757.66;;;21.70;80.96
24422;BME280;12600;53.326;-6.298;2022-09-12T11:54:45;100737.63;;;21.54;80.65
24422;BME280;12600;53.326;-6.298;2022-09-12T11:57:30;100748.75;;;21.54;81.03
24422;BME280;12600;53.326;-6.298;2022-09-12T12:00:05;100747.03;;;21.42;81.12
24422;BME280;12600;53.326;-6.298;2022-09-12T12:02:40;100749.38;;;21.40;81.33
24422;BME280;12600;53.326;-6.298;2022-09-12T12:05:19;100747.69;;;21.32;80.81
24422;BME280;12600;53.326;-6.298;2022-09-12T12:07:54;100738.03;;;21.22;81.38
24422;BME280;12600;53.326;-6.298;2022-09-12T12:10:33;100743.19;;;21.20;80.97
24422;BME280;12600;53.326;-6.298;2022-09-12T12:13:13;100751.91;;;21.19;80.92
24422;BME280;12600;53.326;-6.298;2022-09-12T12:15:47;100751.44;;;21.13;81.14
24422;BME280;12600;53.326;-6.298;2022-09-12T12:18:22;100730.59;;;20.97;81.35
24422;BME280;12600;53.326;-6.298;2022-09-12T12:20:54;100735.38;;;21.00;81.74
24422;BME280;12600;53.326;-6.298;2022-09-12T12:23:26;100720.44;;;20.78;81.33
24422;BME280;12600;53.326;-6.298;2022-09-12T12:26:02;100741.63;;;20.93;81.37
24422;BME280;12600;53.326;-6.298;2022-09-12T12:28:56;100748.72;;;20.87;82.12
24422;BME280;12600;53.326;-6.298;2022-09-12T12:31:26;100754.97;;;20.80;82.54
24422;BME280;12600;53.326;-6.298;2022-09-12T12:34:25;100749.34;;;20.77;82.09
24422;BME280;12600;53.326;-6.298;2022-09-12T12:36:55;100761.19;;;20.70;81.71
24422;BME280;12600;53.326;-6.298;2022-09-12T12:39:57;100764.25;;;20.61;81.42
24422;BME280;12600;53.326;-6.298;2022-09-12T12:43:27;100759.00;;;20.56;82.25
24422;BME280;12600;53.326;-6.298;2022-09-12T12:46:10;100746.91;;;20.45;82.64
24422;BME280;12600;53.326;-6.298;2022-09-12T12:49:06;100766.81;;;20.47;82.48
24422;BME280;12600;53.326;-6.298;2022-09-12T12:51:54;100761.97;;;20.44;82.65
24422;BME280;12600;53.326;-6.298;2022-09-12T12:54:51;100776.41;;;20.53;82.77
24422;BME280;12600;53.326;-6.298;2022-09-12T12:57:44;100769.25;;;20.52;83.49
24422;BME280;12600;53.326;-6.298;2022-09-12T13:00:38;100781.53;;;20.51;83.19
24422;BME280;12600;53.326;-6.298;2022-09-12T13:03:21;100767.53;;;20.44;83.28
24422;BME280;12600;53.326;-6.298;2022-09-12T13:06:00;100769.25;;;20.52;83.54
24422;BME280;12600;53.326;-6.298;2022-09-12T13:08:32;100784.03;;;20.60;82.95
24422;BME280;12600;53.326;-6.298;2022-09-12T13:11:07;100775.28;;;20.58;83.75
24422;BME280;12600;53.326;-6.298;2022-09-12T13:13:48;100788.84;;;20.63;83.52
24422;BME280;12600;53.326;-6.298;2022-09-12T13:16:32;100796.09;;;20.71;83.85
24422;BME280;12600;53.326;-6.298;2022-09-12T13:19:12;100786.06;;;20.63;83.71
24422;BME280;12600;53.326;-6.298;2022-09-12T13:21:54;100790.22;;;20.76;83.97
24422;BME280;12600;53.326;-6.298;2022-09-12T13:24:23;100793.47;;;20.82;83.53
24422;BME280;12600;53.326;-6.298;2022-09-12T13:26:54;100793.09;;;20.83;83.43
24422;BME280;12600;53.326;-6.298;2022-09-12T13:29:26;100801.09;;;20.88;83.76
24422;BME280;12600;53.326;-6.298;2022-09-12T13:31:58;100797.94;;;20.90;84.05
24422;BME280;12600;53.326;-6.298;2022-09-12T13:34:30;100800.41;;;20.95;83.40